sensor_id;sensor_type;location;lat;lon;timestamp;pressure;altitude;pressure_sealevel;temperature;humidity
3780;BME280;1905;52.482;9.802;2022-12-22T00:02:16;100129.66;;;7.56;94.78
3780;BME280;1905;52.482;9.802;2022-12-22T00:05:11;100140.06;;;7.59;96.08
3780;BME280;1905;52.482;9.802;2022-12-22T00:07:57;100133.09;;;7.58;96.38
3780;BME280;1905;52.482;9.802;2022-12-22T00:10:42;100131.38;;;7.57;96.50
3780;BME280;1905;52.482;9.802;2022-12-22T00:13:27;100134.81;;;7.59;96.29
3780;BME280;1905;52.482;9.802;2022-12-22T00:16:12;100120.75;;;7.60;95.08
3780;BME280;1905;52.482;9.802;2022-12-22T00:18:59;100116.50;;;7.58;95.86
3780;BME280;1905;52.482;9.802;2022-12-22T00:21:45;100114.66;;;7.60;95.63
3780;BME280;1905;52.482;9.802;2022-12-22T00:24:30;100108.47;;;7.61;95.81
3780;BME280;1905;52.482;9.802;2022-12-22T00:27:24;100106.75;;;7.60;96.62
3780;BME280;1905;52.482;9.802;2022-12-22T00:30:12;100098.81;;;7.61;96.52
3780;BME280;1905;52.482;9.802;2022-12-22T00:32:58;100093.44;;;7.64;95.94
3780;BME280;1905;52.482;9.802;2022-12-22T00:35:46;100086.47;;;7.63;96.52
3780;BME280;1905;52.482;9.802;2022-12-22T00:38:31;100082.91;;;7.64;96.10
3780;BME280;1905;52.482;9.802;2022-12-22T00:41:16;100082.00;;;7.65;96.39
3780;BME280;1905;52.482;9.802;2022-12-22T00:44:01;100083.69;;;7.66;95.95
3780;BME280;1905;52.482;9.802;2022-12-22T00:46:46;100081.88;;;7.68;95.43
3780;BME280;1905;52.482;9.802;2022-12-22T00:49:33;100081.88;;;7.68;96.70
3780;BME280;1905;52.482;9.802;2022-12-22T00:52:22;100066.16;;;7.67;96.16
3780;BME280;1905;52.482;9.802;2022-12-22T00:55:12;100066.97;;;7.69;97.33
3780;BME280;1905;52.482;9.802;2022-12-22T00:57:58;100068.66;;;7.70;96.44
3780;BME280;1905;52.482;9.802;2022-12-22T01:00:43;100069.41;;;7.73;96.07
3780;BME280;1905;52.482;9.802;2022-12-22T01:03:28;100064.16;;;7.73;95.65
3780;BME280;1905;52.482;9.802;2022-12-22T01:06:14;100060.63;;;7.74;95.63
3780;BME280;1905;52.482;9.802;2022-12-22T01:09:00;100051.78;;;7.75;96.74
3780;BME280;1905;52.482;9.802;2022-12-22T01:11:46;100052.66;;;7.76;96.77
3780;BME280;1905;52.482;9.802;2022-12-22T01:14:31;100056.91;;;7.78;96.56
3780;BME280;1905;52.482;9.802;2022-12-22T01:17:16;100053.38;;;7.79;95.02
3780;BME280;1905;52.482;9.802;2022-12-22T01:20:01;100049.81;;;7.80;95.72
3780;BME280;1905;52.482;9.802;2022-12-22T01:22:46;100055.88;;;7.83;96.90
3780;BME280;1905;52.482;9.802;2022-12-22T01:25:33;100050.69;;;7.81;95.84
3780;BME280;1905;52.482;9.802;2022-12-22T01:28:18;100042.75;;;7.83;96.10
3780;BME280;1905;52.482;9.802;2022-12-22T01:31:14;100040.94;;;7.83;96.29
3780;BME280;1905;52.482;9.802;2022-12-22T01:33:59;100041.75;;;7.85;96.76
3780;BME280;1905;52.482;9.802;2022-12-22T01:36:44;100034.78;;;7.84;95.95
3780;BME280;1905;52.482;9.802;2022-12-22T01:39:29;100027.63;;;7.88;96.54
3780;BME280;1905;52.482;9.802;2022-12-22T01:42:16;100029.44;;;7.86;96.44
3780;BME280;1905;52.482;9.802;2022-12-22T01:45:16;100025.78;;;7.90;95.63
3780;BME280;1905;52.482;9.802;2022-12-22T01:48:03;100024.06;;;7.89;95.58
3780;BME280;1905;52.482;9.802;2022-12-22T01:50:48;100020.44;;;7.91;95.81
3780;BME280;1905;52.482;9.802;2022-12-22T01:53:33;100015.19;;;7.91;95.38
3780;BME280;1905;52.482;9.802;2022-12-22T01:56:18;100010.78;;;7.92;97.42
3780;BME280;1905;52.482;9.802;2022-12-22T01:59:05;100016.03;;;7.92;97.23
3780;BME280;1905;52.482;9.802;2022-12-22T02:01:50;100008.94;;;7.94;96.56
3780;BME280;1905;52.482;9.802;2022-12-22T02:04:39;100011.44;;;7.97;96.56
3780;BME280;1905;52.482;9.802;2022-12-22T02:07:38;100013.16;;;7.98;95.52
3780;BME280;1905;52.482;9.802;2022-12-22T02:10:42;100008.81;;;7.97;97.87
3780;BME280;1905;52.482;9.802;2022-12-22T02:13:40;100009.66;;;7.97;96.11
3780;BME280;1905;52.482;9.802;2022-12-22T02:16:34;100006.13;;;7.98;95.75
3780;BME280;1905;52.482;9.802;2022-12-22T02:19:40;100008.66;;;8.00;96.15
3780;BME280;1905;52.482;9.802;2022-12-22T02:22:37;99999.88;;;8.01;95.67
3780;BME280;1905;52.482;9.802;2022-12-22T02:25:27;99984.97;;;8.01;97.52
3780;BME280;1905;52.482;9.802;2022-12-22T02:28:17;99982.38;;;8.00;96.60
3780;BME280;1905;52.482;9.802;2022-12-22T02:31:04;99982.25;;;8.03;97.18
3780;BME280;1905;52.482;9.802;2022-12-22T02:33:50;99983.97;;;8.04;96.16
3780;BME280;1905;52.482;9.802;2022-12-22T02:36:42;99978.69;;;8.04;96.49
3780;BME280;1905;52.482;9.802;2022-12-22T02:39:37;99977.72;;;8.06;95.46
3780;BME280;1905;52.482;9.802;2022-12-22T02:42:30;99969.88;;;8.05;95.79
3780;BME280;1905;52.482;9.802;2022-12-22T02:45:25;99968.06;;;8.07;94.83
3780;BME280;1905;52.482;9.802;2022-12-22T02:48:16;99968.88;;;8.07;95.29
3780;BME280;1905;52.482;9.802;2022-12-22T02:51:07;99962.78;;;8.07;95.90
3780;BME280;1905;52.482;9.802;2022-12-22T02:53:55;99965.44;;;8.07;95.71
3780;BME280;1905;52.482;9.802;2022-12-22T02:56:41;99961.81;;;8.09;95.13
3780;BME280;1905;52.482;9.802;2022-12-22T02:59:27;99957.41;;;8.10;95.12
3780;BME280;1905;52.482;9.802;2022-12-22T03:02:14;99949.44;;;8.11;94.90
3780;BME280;1905;52.482;9.802;2022-12-22T03:04:59;99945.88;;;8.12;94.71
3780;BME280;1905;52.482;9.802;2022-12-22T03:07:44;99949.44;;;8.11;93.80
3780;BME280;1905;52.482;9.802;2022-12-22T03:10:34;99938.06;;;8.11;93.72
3780;BME280;1905;52.482;9.802;2022-12-22T03:13:18;99944.09;;;8.13;93.71
3780;BME280;1905;52.482;9.802;2022-12-22T03:16:04;99945.03;;;8.12;93.89
3780;BME280;1905;52.482;9.802;2022-12-22T03:18:51;99938.81;;;8.13;94.27
3780;BME280;1905;52.482;9.802;2022-12-22T03:21:36;99941.41;;;8.14;94.08
3780;BME280;1905;52.482;9.802;2022-12-22T03:24:21;99938.69;;;8.16;94.56
3780;BME280;1905;52.482;9.802;2022-12-22T03:27:06;99927.41;;;8.14;95.18
3780;BME280;1905;52.482;9.802;2022-12-22T03:29:34;99921.28;;;8.13;95.25
3780;BME280;1905;52.482;9.802;2022-12-22T03:32:02;99918.59;;;8.15;95.10
3780;BME280;1905;52.482;9.802;2022-12-22T03:34:30;99914.09;;;8.17;95.47
3780;BME280;1905;52.482;9.802;2022-12-22T03:36:58;99913.19;;;8.18;94.57
3780;BME280;1905;52.482;9.802;2022-12-22T03:39:25;99911.41;;;8.18;94.81
3780;BME280;1905;52.482;9.802;2022-12-22T03:41:53;99904.38;;;8.19;94.94
3780;BME280;1905;52.482;9.802;2022-12-22T03:44:38;99895.69;;;8.17;95.07
3780;BME280;1905;52.482;9.802;2022-12-22T03:47:23;99891.31;;;8.17;95.33
3780;BME280;1905;52.482;9.802;2022-12-22T03:49:52;99897.41;;;8.18;94.68
3780;BME280;1905;52.482;9.802;2022-12-22T03:52:20;99902.50;;;8.21;94.58
3780;BME280;1905;52.482;9.802;2022-12-22T03:54:47;99889.53;;;8.18;94.52
3780;BME280;1905;52.482;9.802;2022-12-22T03:57:15;99886.72;;;8.21;94.71
3780;BME280;1905;52.482;9.802;2022-12-22T03:59:42;99888.44;;;8.22;93.96
3780;BME280;1905;52.482;9.802;2022-12-22T04:02:10;99897.09;;;8.24;94.23
3780;BME280;1905;52.482;9.802;2022-12-22T04:04:37;99884.91;;;8.23;94.22
3780;BME280;1905;52.482;9.802;2022-12-22T04:07:06;99877.88;;;8.23;93.16
3780;BME280;1905;52.482;9.802;2022-12-22T04:09:34;99882.13;;;8.26;93.40
3780;BME280;1905;52.482;9.802;2022-12-22T04:12:21;99875.28;;;8.22;93.47
3780;BME280;1905;52.482;9.802;2022-12-22T04:15:07;99883.28;;;8.20;93.40
3780;BME280;1905;52.482;9.802;2022-12-22T04:17:35;99876.28;;;8.19;92.98
3780;BME280;1905;52.482;9.802;2022-12-22T04:20:02;99870.94;;;8.21;93.36
3780;BME280;1905;52.482;9.802;2022-12-22T04:22:31;99876.22;;;8.21;93.26
3780;BME280;1905;52.482;9.802;2022-12-22T04:24:59;99881.47;;;8.21;93.72
3780;BME280;1905;52.482;9.802;2022-12-22T04:27:26;99867.53;;;8.19;93.42
3780;BME280;1905;52.482;9.802;2022-12-22T04:29:54;99868.50;;;8.18;93.42
3780;BME280;1905;52.482;9.802;2022-12-22T04:32:21;99856.16;;;8.18;93.08
3780;BME280;1905;52.482;9.802;2022-12-22T04:34:49;99850.09;;;8.18;93.09
3780;BME280;1905;52.482;9.802;2022-12-22T04:37:16;99848.38;;;8.17;93.45
3780;BME280;1905;52.482;9.802;2022-12-22T04:39:45;99856.25;;;8.17;93.63
3780;BME280;1905;52.482;9.802;2022-12-22T04:42:13;99839.56;;;8.18;92.76
3780;BME280;1905;52.482;9.802;2022-12-22T04:44:40;99853.63;;;8.17;92.80
3780;BME280;1905;52.482;9.802;2022-12-22T04:47:08;99843.09;;;8.17;92.98
3780;BME280;1905;52.482;9.802;2022-12-22T04:49:35;99843.09;;;8.17;93.19
3780;BME280;1905;52.482;9.802;2022-12-22T04:52:03;99844.03;;;8.16;93.39
3780;BME280;1905;52.482;9.802;2022-12-22T04:54:30;99836.13;;;8.16;93.85
3780;BME280;1905;52.482;9.802;2022-12-22T04:56:59;99837.00;;;8.16;93.45
3780;BME280;1905;52.482;9.802;2022-12-22T04:59:27;99823.94;;;8.15;92.48
3780;BME280;1905;52.482;9.802;2022-12-22T05:01:54;99829.19;;;8.15;93.33
3780;BME280;1905;52.482;9.802;2022-12-22T05:04:22;99826.56;;;8.15;92.97
3780;BME280;1905;52.482;9.802;2022-12-22T05:06:49;99817.81;;;8.14;92.58
3780;BME280;1905;52.482;9.802;2022-12-22T05:09:17;99809.16;;;8.12;93.20
3780;BME280;1905;52.482;9.802;2022-12-22T05:11:45;99808.19;;;8.13;93.18
3780;BME280;1905;52.482;9.802;2022-12-22T05:14:14;99805.66;;;8.12;93.09
3780;BME280;1905;52.482;9.802;2022-12-22T05:16:41;99804.72;;;8.13;92.90
3780;BME280;1905;52.482;9.802;2022-12-22T05:19:09;99800.41;;;8.12;93.09
3780;BME280;1905;52.482;9.802;2022-12-22T05:21:36;99794.19;;;8.13;93.12
3780;BME280;1905;52.482;9.802;2022-12-22T05:24:05;99787.09;;;8.15;93.13
3780;BME280;1905;52.482;9.802;2022-12-22T05:26:33;99795.06;;;8.13;93.26
3780;BME280;1905;52.482;9.802;2022-12-22T05:29:00;99784.53;;;8.13;93.40
3780;BME280;1905;52.482;9.802;2022-12-22T05:31:29;99782.00;;;8.12;93.06
3780;BME280;1905;52.482;9.802;2022-12-22T05:33:57;99787.25;;;8.12;92.79
3780;BME280;1905;52.482;9.802;2022-12-22T05:36:24;99784.63;;;8.12;93.42
3780;BME280;1905;52.482;9.802;2022-12-22T05:38:52;99781.06;;;8.13;92.77
3780;BME280;1905;52.482;9.802;2022-12-22T05:41:19;99766.22;;;8.12;92.56
3780;BME280;1905;52.482;9.802;2022-12-22T05:43:47;99773.16;;;8.13;92.59
3780;BME280;1905;52.482;9.802;2022-12-22T05:46:14;99773.16;;;8.13;92.81
3780;BME280;1905;52.482;9.802;2022-12-22T05:48:43;99774.03;;;8.13;93.35
3780;BME280;1905;52.482;9.802;2022-12-22T05:51:10;99767.06;;;8.12;92.29
3780;BME280;1905;52.482;9.802;2022-12-22T05:53:38;99768.75;;;8.13;93.13
3780;BME280;1905;52.482;9.802;2022-12-22T05:56:07;99760.97;;;8.12;93.28
3780;BME280;1905;52.482;9.802;2022-12-22T05:58:36;99761.88;;;8.11;92.99
3780;BME280;1905;52.482;9.802;2022-12-22T06:01:05;99761.81;;;8.12;93.25
3780;BME280;1905;52.482;9.802;2022-12-22T06:03:32;99750.44;;;8.12;92.37
3780;BME280;1905;52.482;9.802;2022-12-22T06:06:05;99742.56;;;8.12;92.70
3780;BME280;1905;52.482;9.802;2022-12-22T06:08:32;99746.88;;;8.13;92.67
3780;BME280;1905;52.482;9.802;2022-12-22T06:11:00;99740.78;;;8.12;92.65
3780;BME280;1905;52.482;9.802;2022-12-22T06:13:27;99745.19;;;8.12;92.94
3780;BME280;1905;52.482;9.802;2022-12-22T06:15:55;99746.03;;;8.12;93.17
3780;BME280;1905;52.482;9.802;2022-12-22T06:18:23;99739.91;;;8.12;92.37
3780;BME280;1905;52.482;9.802;2022-12-22T06:20:51;99736.34;;;8.13;92.96
3780;BME280;1905;52.482;9.802;2022-12-22T06:23:20;99739.91;;;8.12;92.57
3780;BME280;1905;52.482;9.802;2022-12-22T06:25:53;99739.91;;;8.12;92.60
3780;BME280;1905;52.482;9.802;2022-12-22T06:28:21;99729.41;;;8.12;93.35
3780;BME280;1905;52.482;9.802;2022-12-22T06:30:49;99730.31;;;8.11;92.96
3780;BME280;1905;52.482;9.802;2022-12-22T06:33:16;99722.44;;;8.11;93.04
3780;BME280;1905;52.482;9.802;2022-12-22T06:35:44;99727.69;;;8.11;93.10
3780;BME280;1905;52.482;9.802;2022-12-22T06:38:24;99722.56;;;8.08;91.98
3780;BME280;1905;52.482;9.802;2022-12-22T06:40:51;99720.91;;;8.07;92.33
3780;BME280;1905;52.482;9.802;2022-12-22T06:43:19;99719.19;;;8.06;92.20
3780;BME280;1905;52.482;9.802;2022-12-22T06:45:45;99709.56;;;8.05;92.11
3780;BME280;1905;52.482;9.802;2022-12-22T06:48:13;99714.06;;;8.03;92.84
3780;BME280;1905;52.482;9.802;2022-12-22T06:50:40;99712.34;;;8.02;92.85
3780;BME280;1905;52.482;9.802;2022-12-22T06:53:09;99708.94;;;8.00;92.90
3780;BME280;1905;52.482;9.802;2022-12-22T06:55:38;99723.03;;;7.99;92.38
3780;BME280;1905;52.482;9.802;2022-12-22T06:58:06;99714.31;;;7.98;92.94
3780;BME280;1905;52.482;9.802;2022-12-22T07:00:33;99717.78;;;7.99;92.51
3780;BME280;1905;52.482;9.802;2022-12-22T07:03:01;99721.34;;;7.98;92.35
3780;BME280;1905;52.482;9.802;2022-12-22T07:05:29;99724.88;;;7.97;92.04
3780;BME280;1905;52.482;9.802;2022-12-22T07:07:57;99722.25;;;7.97;92.48
3780;BME280;1905;52.482;9.802;2022-12-22T07:10:38;99723.19;;;7.96;92.84
3780;BME280;1905;52.482;9.802;2022-12-22T07:13:24;99721.47;;;7.95;91.99
3780;BME280;1905;52.482;9.802;2022-12-22T07:15:53;99714.50;;;7.94;92.41
3780;BME280;1905;52.482;9.802;2022-12-22T07:18:27;99715.34;;;7.94;92.42
3780;BME280;1905;52.482;9.802;2022-12-22T07:20:55;99720.63;;;7.94;93.08
3780;BME280;1905;52.482;9.802;2022-12-22T07:23:22;99716.22;;;7.95;92.97
3780;BME280;1905;52.482;9.802;2022-12-22T07:25:51;99718.84;;;7.95;92.99
3780;BME280;1905;52.482;9.802;2022-12-22T07:28:19;99717.94;;;7.96;92.49
3780;BME280;1905;52.482;9.802;2022-12-22T07:30:47;99717.94;;;7.96;92.67
3780;BME280;1905;52.482;9.802;2022-12-22T07:33:15;99722.34;;;7.95;92.97
3780;BME280;1905;52.482;9.802;2022-12-22T07:35:43;99722.34;;;7.95;92.54
3780;BME280;1905;52.482;9.802;2022-12-22T07:38:11;99720.56;;;7.96;91.94
3780;BME280;1905;52.482;9.802;2022-12-22T07:40:38;99717.94;;;7.96;92.14
3780;BME280;1905;52.482;9.802;2022-12-22T07:43:10;99718.84;;;7.95;92.40
3780;BME280;1905;52.482;9.802;2022-12-22T07:45:37;99711.81;;;7.95;92.78
3780;BME280;1905;52.482;9.802;2022-12-22T07:48:04;99717.94;;;7.96;92.93
3780;BME280;1905;52.482;9.802;2022-12-22T07:50:53;99712.69;;;7.96;92.99
3780;BME280;1905;52.482;9.802;2022-12-22T07:53:19;99705.56;;;7.98;92.71
3780;BME280;1905;52.482;9.802;2022-12-22T07:55:47;99717.78;;;7.99;92.98
3780;BME280;1905;52.482;9.802;2022-12-22T07:58:15;99719.47;;;8.00;92.19
3780;BME280;1905;52.482;9.802;2022-12-22T08:00:43;99716.84;;;8.00;92.45
3780;BME280;1905;52.482;9.802;2022-12-22T08:03:11;99721.19;;;8.01;92.33
3780;BME280;1905;52.482;9.802;2022-12-22T08:05:38;99712.34;;;8.02;92.44
3780;BME280;1905;52.482;9.802;2022-12-22T08:08:06;99728.13;;;8.02;92.45
3780;BME280;1905;52.482;9.802;2022-12-22T08:10:33;99726.28;;;8.04;92.79
3780;BME280;1905;52.482;9.802;2022-12-22T08:13:01;99717.47;;;8.05;92.50
3780;BME280;1905;52.482;9.802;2022-12-22T08:15:30;99710.53;;;8.04;92.66
3780;BME280;1905;52.482;9.802;2022-12-22T08:17:57;99719.19;;;8.06;92.33
3780;BME280;1905;52.482;9.802;2022-12-22T08:20:25;99713.91;;;8.06;91.89
3780;BME280;1905;52.482;9.802;2022-12-22T08:22:53;99709.53;;;8.06;92.81
3780;BME280;1905;52.482;9.802;2022-12-22T08:25:22;99721.66;;;8.09;92.48
3780;BME280;1905;52.482;9.802;2022-12-22T08:27:50;99718.94;;;8.10;92.71
3780;BME280;1905;52.482;9.802;2022-12-22T08:30:19;99717.16;;;8.11;92.80
3780;BME280;1905;52.482;9.802;2022-12-22T08:32:50;99718.03;;;8.11;92.70
3780;BME280;1905;52.482;9.802;2022-12-22T08:35:18;99711.91;;;8.11;92.71
3780;BME280;1905;52.482;9.802;2022-12-22T08:37:46;99720.56;;;8.13;92.52
3780;BME280;1905;52.482;9.802;2022-12-22T08:40:17;99723.13;;;8.14;92.57
3780;BME280;1905;52.482;9.802;2022-12-22T08:42:46;99719.56;;;8.15;92.48
3780;BME280;1905;52.482;9.802;2022-12-22T08:45:14;99727.41;;;8.17;92.85
3780;BME280;1905;52.482;9.802;2022-12-22T08:47:42;99718.59;;;8.18;92.43
3780;BME280;1905;52.482;9.802;2022-12-22T08:50:11;99725.53;;;8.19;92.01
3780;BME280;1905;52.482;9.802;2022-12-22T08:52:39;99723.66;;;8.21;92.86
3780;BME280;1905;52.482;9.802;2022-12-22T08:55:08;99730.59;;;8.23;93.04
3780;BME280;1905;52.482;9.802;2022-12-22T08:57:36;99728.78;;;8.24;92.43
3780;BME280;1905;52.482;9.802;2022-12-22T09:00:05;99726.03;;;8.27;92.34
3780;BME280;1905;52.482;9.802;2022-12-22T09:02:33;99735.63;;;8.28;92.53
3780;BME280;1905;52.482;9.802;2022-12-22T09:05:02;99733.78;;;8.30;92.63
3780;BME280;1905;52.482;9.802;2022-12-22T09:07:30;99740.75;;;8.31;92.98
3780;BME280;1905;52.482;9.802;2022-12-22T09:09:58;99728.38;;;8.33;92.51
3780;BME280;1905;52.482;9.802;2022-12-22T09:12:25;99737.88;;;8.35;92.17
3780;BME280;1905;52.482;9.802;2022-12-22T09:14:53;99731.63;;;8.38;92.48
3780;BME280;1905;52.482;9.802;2022-12-22T09:17:20;99742.91;;;8.40;92.91
3780;BME280;1905;52.482;9.802;2022-12-22T09:19:48;99741.13;;;8.41;92.48
3780;BME280;1905;52.482;9.802;2022-12-22T09:22:15;99741.91;;;8.43;92.84
3780;BME280;1905;52.482;9.802;2022-12-22T09:24:53;99747.09;;;8.44;93.13
3780;BME280;1905;52.482;9.802;2022-12-22T09:27:21;99746.94;;;8.47;93.15
3780;BME280;1905;52.482;9.802;2022-12-22T09:29:48;99747.72;;;8.49;93.27
3780;BME280;1905;52.482;9.802;2022-12-22T09:32:15;99747.63;;;8.51;92.63
3780;BME280;1905;52.482;9.802;2022-12-22T09:34:43;99754.53;;;8.53;92.54
3780;BME280;1905;52.482;9.802;2022-12-22T09:37:13;99752.75;;;8.54;93.05
3780;BME280;1905;52.482;9.802;2022-12-22T09:39:40;99750.91;;;8.56;92.72
3780;BME280;1905;52.482;9.802;2022-12-22T09:42:13;99753.44;;;8.57;92.83
3780;BME280;1905;52.482;9.802;2022-12-22T09:44:43;99755.16;;;8.58;92.10
3780;BME280;1905;52.482;9.802;2022-12-22T09:47:15;99755.94;;;8.60;92.56
3780;BME280;1905;52.482;9.802;2022-12-22T09:49:45;99751.44;;;8.62;92.50
3780;BME280;1905;52.482;9.802;2022-12-22T09:52:22;99750.41;;;8.65;92.92
3780;BME280;1905;52.482;9.802;2022-12-22T09:54:50;99740.84;;;8.64;93.92
3780;BME280;1905;52.482;9.802;2022-12-22T09:57:19;99745.09;;;8.66;94.59
3780;BME280;1905;52.482;9.802;2022-12-22T09:59:47;99751.13;;;8.68;94.82
3780;BME280;1905;52.482;9.802;2022-12-22T10:02:23;99751.91;;;8.70;95.74
3780;BME280;1905;52.482;9.802;2022-12-22T10:05:05;99749.09;;;8.73;93.55
3780;BME280;1905;52.482;9.802;2022-12-22T10:07:38;99759.47;;;8.76;93.46
3780;BME280;1905;52.482;9.802;2022-12-22T10:10:16;99756.59;;;8.81;92.96
3780;BME280;1905;52.482;9.802;2022-12-22T10:12:51;99759.19;;;8.82;92.85
3780;BME280;1905;52.482;9.802;2022-12-22T10:15:21;99763.44;;;8.85;93.15
3780;BME280;1905;52.482;9.802;2022-12-22T10:17:52;99772.09;;;8.87;92.77
3780;BME280;1905;52.482;9.802;2022-12-22T10:20:23;99769.41;;;8.88;93.08
3780;BME280;1905;52.482;9.802;2022-12-22T10:22:53;99757.00;;;8.90;92.98
3780;BME280;1905;52.482;9.802;2022-12-22T10:25:25;99760.41;;;8.92;93.19
3780;BME280;1905;52.482;9.802;2022-12-22T10:28:19;99762.97;;;8.94;92.66
3780;BME280;1905;52.482;9.802;2022-12-22T10:30:48;99776.03;;;8.95;91.76
3780;BME280;1905;52.482;9.802;2022-12-22T10:33:17;99768.91;;;8.97;92.87
3780;BME280;1905;52.482;9.802;2022-12-22T10:35:49;99768.03;;;8.97;93.50
3780;BME280;1905;52.482;9.802;2022-12-22T10:38:20;99772.31;;;8.99;92.53
3780;BME280;1905;52.482;9.802;2022-12-22T10:40:51;99770.53;;;9.00;93.18
3780;BME280;1905;52.482;9.802;2022-12-22T10:43:30;99766.88;;;9.03;94.10
3780;BME280;1905;52.482;9.802;2022-12-22T10:45:59;99767.59;;;9.06;93.43
3780;BME280;1905;52.482;9.802;2022-12-22T10:48:30;99775.31;;;9.09;93.73
3780;BME280;1905;52.482;9.802;2022-12-22T10:50:59;99778.06;;;9.08;93.48
3780;BME280;1905;52.482;9.802;2022-12-22T10:53:40;99776.09;;;9.11;94.97
3780;BME280;1905;52.482;9.802;2022-12-22T10:56:19;99780.34;;;9.14;95.60
3780;BME280;1905;52.482;9.802;2022-12-22T10:58:49;99790.13;;;9.12;95.18
3780;BME280;1905;52.482;9.802;2022-12-22T11:01:27;99794.22;;;9.17;93.92
3780;BME280;1905;52.482;9.802;2022-12-22T11:03:55;99802.03;;;9.19;95.01
3780;BME280;1905;52.482;9.802;2022-12-22T11:06:23;99799.22;;;9.22;94.86
3780;BME280;1905;52.482;9.802;2022-12-22T11:08:50;99800.19;;;9.21;95.44
3780;BME280;1905;52.482;9.802;2022-12-22T11:11:30;99813.19;;;9.24;96.29
3780;BME280;1905;52.482;9.802;2022-12-22T11:14:10;99808.84;;;9.23;95.99
3780;BME280;1905;52.482;9.802;2022-12-22T11:16:46;99810.47;;;9.25;96.45
3780;BME280;1905;52.482;9.802;2022-12-22T11:19:31;99820.09;;;9.26;96.26
3780;BME280;1905;52.482;9.802;2022-12-22T11:22:07;99812.09;;;9.28;96.11
3780;BME280;1905;52.482;9.802;2022-12-22T11:24:49;99820.91;;;9.27;96.68
3780;BME280;1905;52.482;9.802;2022-12-22T11:27:28;99816.28;;;9.32;96.73
3780;BME280;1905;52.482;9.802;2022-12-22T11:30:07;99821.56;;;9.32;97.09
3780;BME280;1905;52.482;9.802;2022-12-22T11:35:40;99820.38;;;9.37;96.49
3780;BME280;1905;52.482;9.802;2022-12-22T11:38:13;99817.41;;;9.43;97.45
3780;BME280;1905;52.482;9.802;2022-12-22T11:40:49;99816.63;;;9.41;97.13
3780;BME280;1905;52.482;9.802;2022-12-22T11:43:23;99820.88;;;9.44;96.42
3780;BME280;1905;52.482;9.802;2022-12-22T11:46:13;99819.81;;;9.48;95.81
3780;BME280;1905;52.482;9.802;2022-12-22T11:49:00;99808.16;;;9.52;95.54
3780;BME280;1905;52.482;9.802;2022-12-22T11:51:41;99814.97;;;9.56;95.99
3780;BME280;1905;52.482;9.802;2022-12-22T11:54:34;99826.19;;;9.59;95.44
3780;BME280;1905;52.482;9.802;2022-12-22T11:57:16;99826.88;;;9.63;95.56
3780;BME280;1905;52.482;9.802;2022-12-22T11:59:52;99843.06;;;9.73;95.95
3780;BME280;1905;52.482;9.802;2022-12-22T12:02:42;99841.28;;;9.73;95.65
3780;BME280;1905;52.482;9.802;2022-12-22T12:05:37;99853.63;;;9.73;95.15
3780;BME280;1905;52.482;9.802;2022-12-22T12:08:14;99855.25;;;9.75;95.63
3780;BME280;1905;52.482;9.802;2022-12-22T12:10:47;99855.84;;;9.80;96.27
3780;BME280;1905;52.482;9.802;2022-12-22T12:13:23;99856.75;;;9.79;95.62
3780;BME280;1905;52.482;9.802;2022-12-22T12:16:09;99847.78;;;9.83;95.19
3780;BME280;1905;52.482;9.802;2022-12-22T12:21:37;99865.06;;;9.89;94.53
3780;BME280;1905;52.482;9.802;2022-12-22T12:27:03;99869.16;;;9.94;94.22
3780;BME280;1905;52.482;9.802;2022-12-22T12:29:36;99875.78;;;10.01;95.90
3780;BME280;1905;52.482;9.802;2022-12-22T12:32:13;99876.81;;;9.99;95.24
3780;BME280;1905;52.482;9.802;2022-12-22T12:34:48;99870.81;;;9.95;95.23
3780;BME280;1905;52.482;9.802;2022-12-22T12:37:20;99876.63;;;10.02;95.06
3780;BME280;1905;52.482;9.802;2022-12-22T12:39:57;99883.09;;;9.96;93.81
3780;BME280;1905;52.482;9.802;2022-12-22T12:42:31;99890.84;;;9.99;95.25
3780;BME280;1905;52.482;9.802;2022-12-22T12:45:00;99889.81;;;10.02;94.04
3780;BME280;1905;52.482;9.802;2022-12-22T12:47:29;99893.66;;;9.96;94.51
3780;BME280;1905;52.482;9.802;2022-12-22T12:53:14;99910.06;;;10.01;93.34
3780;BME280;1905;52.482;9.802;2022-12-22T12:56:00;99912.81;;;10.00;94.48
3780;BME280;1905;52.482;9.802;2022-12-22T12:58:50;99921.38;;;10.03;94.84
3780;BME280;1905;52.482;9.802;2022-12-22T13:01:58;99914.59;;;9.99;94.65
3780;BME280;1905;52.482;9.802;2022-12-22T13:05:03;99926.97;;;9.97;94.81
3780;BME280;1905;52.482;9.802;2022-12-22T13:14:08;99925.63;;;9.90;94.83
3780;BME280;1905;52.482;9.802;2022-12-22T13:16:38;99933.69;;;9.87;95.01
3780;BME280;1905;52.482;9.802;2022-12-22T13:19:16;99925.78;;;9.87;94.37
3780;BME280;1905;52.482;9.802;2022-12-22T13:21:47;99928.25;;;9.90;94.68
3780;BME280;1905;52.482;9.802;2022-12-22T13:24:23;99926.38;;;9.92;94.10
3780;BME280;1905;52.482;9.802;2022-12-22T13:27:00;99939.56;;;9.92;94.32
3780;BME280;1905;52.482;9.802;2022-12-22T13:29:41;99944.69;;;9.95;94.58
3780;BME280;1905;52.482;9.802;2022-12-22T13:32:20;99950.91;;;9.94;94.62
3780;BME280;1905;52.482;9.802;2022-12-22T13:34:53;99955.22;;;9.95;94.70
3780;BME280;1905;52.482;9.802;2022-12-22T13:37:47;99965.78;;;9.95;94.00
3780;BME280;1905;52.482;9.802;2022-12-22T13:40:17;99969.38;;;9.94;94.57
3780;BME280;1905;52.482;9.802;2022-12-22T13:42:47;99962.38;;;9.93;93.41
3780;BME280;1905;52.482;9.802;2022-12-22T13:45:21;99978.75;;;10.00;92.84
3780;BME280;1905;52.482;9.802;2022-12-22T13:47:52;99973.53;;;9.98;93.72
3780;BME280;1905;52.482;9.802;2022-12-22T13:50:23;99976.63;;;9.89;94.16
3780;BME280;1905;52.482;9.802;2022-12-22T13:52:54;99980.84;;;9.93;93.38
3780;BME280;1905;52.482;9.802;2022-12-22T13:55:25;99984.56;;;9.89;92.95
3780;BME280;1905;52.482;9.802;2022-12-22T13:57:56;99980.06;;;9.91;92.53
3780;BME280;1905;52.482;9.802;2022-12-22T14:00:27;99988.91;;;9.90;92.81
3780;BME280;1905;52.482;9.802;2022-12-22T14:02:56;99989.22;;;9.84;93.27
3780;BME280;1905;52.482;9.802;2022-12-22T14:05:29;99982.25;;;9.83;93.52
3780;BME280;1905;52.482;9.802;2022-12-22T14:08:00;99987.69;;;9.80;92.75
3780;BME280;1905;52.482;9.802;2022-12-22T14:10:31;99987.69;;;9.80;92.49
3780;BME280;1905;52.482;9.802;2022-12-22T14:13:04;99984.44;;;9.75;92.36
3780;BME280;1905;52.482;9.802;2022-12-22T14:15:32;99996.00;;;9.73;92.84
3780;BME280;1905;52.482;9.802;2022-12-22T14:18:00;99990.78;;;9.71;92.87
3780;BME280;1905;52.482;9.802;2022-12-22T14:20:31;100000.72;;;9.66;93.39
3780;BME280;1905;52.482;9.802;2022-12-22T14:23:05;100005.28;;;9.63;92.70
3780;BME280;1905;52.482;9.802;2022-12-22T14:25:35;100004.44;;;9.62;93.36
3780;BME280;1905;52.482;9.802;2022-12-22T14:28:05;100004.59;;;9.59;92.55
3780;BME280;1905;52.482;9.802;2022-12-22T14:30:41;100008.25;;;9.56;92.56
3780;BME280;1905;52.482;9.802;2022-12-22T14:33:16;100003.91;;;9.55;92.45